sensor_id;sensor_type;location;lat;lon;timestamp;temperature;humidity
5130;DHT22;2583;50.946;6.954;2023-01-16T00:01:51;7.30;99.90
5130;DHT22;2583;50.946;6.954;2023-01-16T00:04:18;7.30;99.60
5130;DHT22;2583;50.946;6.954;2023-01-16T00:06:45;7.30;99.80
5130;DHT22;2583;50.946;6.954;2023-01-16T00:09:12;7.30;99.90
5130;DHT22;2583;50.946;6.954;2023-01-16T00:11:39;7.30;99.90
5130;DHT22;2583;50.946;6.954;2023-01-16T00:14:06;7.20;99.90
5130;DHT22;2583;50.946;6.954;2023-01-16T00:16:33;7.10;99.90
5130;DHT22;2583;50.946;6.954;2023-01-16T00:18:59;7.20;99.90
5130;DHT22;2583;50.946;6.954;2023-01-16T00:21:26;7.10;99.90
5130;DHT22;2583;50.946;6.954;2023-01-16T00:23:55;7.10;99.90
5130;DHT22;2583;50.946;6.954;2023-01-16T00:26:23;7.10;99.90
5130;DHT22;2583;50.946;6.954;2023-01-16T00:28:49;7.10;99.90
5130;DHT22;2583;50.946;6.954;2023-01-16T00:31:16;7.20;99.90
5130;DHT22;2583;50.946;6.954;2023-01-16T00:33:43;7.10;99.90
5130;DHT22;2583;50.946;6.954;2023-01-16T00:36:11;7.10;99.90
5130;DHT22;2583;50.946;6.954;2023-01-16T00:38:38;7.10;99.90
5130;DHT22;2583;50.946;6.954;2023-01-16T00:41:05;7.10;99.90
5130;DHT22;2583;50.946;6.954;2023-01-16T00:43:33;7.10;99.90
5130;DHT22;2583;50.946;6.954;2023-01-16T00:46:00;7.10;99.90
5130;DHT22;2583;50.946;6.954;2023-01-16T00:48:26;7.20;99.90
5130;DHT22;2583;50.946;6.954;2023-01-16T00:50:53;7.20;99.90
5130;DHT22;2583;50.946;6.954;2023-01-16T00:53:20;7.20;99.90
5130;DHT22;2583;50.946;6.954;2023-01-16T00:55:47;7.20;99.90
5130;DHT22;2583;50.946;6.954;2023-01-16T00:58:16;7.20;99.90
5130;DHT22;2583;50.946;6.954;2023-01-16T01:00:43;7.20;99.90
5130;DHT22;2583;50.946;6.954;2023-01-16T01:03:10;7.30;99.90
5130;DHT22;2583;50.946;6.954;2023-01-16T01:05:37;7.40;99.90
5130;DHT22;2583;50.946;6.954;2023-01-16T01:08:05;7.40;99.90
5130;DHT22;2583;50.946;6.954;2023-01-16T01:10:32;7.40;99.90
5130;DHT22;2583;50.946;6.954;2023-01-16T01:12:59;7.30;99.90
5130;DHT22;2583;50.946;6.954;2023-01-16T01:15:26;7.30;99.90
5130;DHT22;2583;50.946;6.954;2023-01-16T01:17:53;7.30;99.90
5130;DHT22;2583;50.946;6.954;2023-01-16T01:20:19;7.20;99.90
5130;DHT22;2583;50.946;6.954;2023-01-16T01:22:46;7.30;99.90
5130;DHT22;2583;50.946;6.954;2023-01-16T01:25:13;7.30;99.90
5130;DHT22;2583;50.946;6.954;2023-01-16T01:27:40;7.30;99.90
5130;DHT22;2583;50.946;6.954;2023-01-16T01:30:07;7.30;99.90
5130;DHT22;2583;50.946;6.954;2023-01-16T01:32:35;7.20;99.90
5130;DHT22;2583;50.946;6.954;2023-01-16T01:35:05;7.20;99.90
5130;DHT22;2583;50.946;6.954;2023-01-16T01:37:33;7.20;99.90
5130;DHT22;2583;50.946;6.954;2023-01-16T01:40:01;7.10;99.90
5130;DHT22;2583;50.946;6.954;2023-01-16T01:42:28;7.10;99.90
5130;DHT22;2583;50.946;6.954;2023-01-16T01:47:42;7.10;99.90
5130;DHT22;2583;50.946;6.954;2023-01-16T01:50:18;7.00;99.90
5130;DHT22;2583;50.946;6.954;2023-01-16T01:52:47;7.10;99.90
5130;DHT22;2583;50.946;6.954;2023-01-16T01:55:14;7.00;99.90
5130;DHT22;2583;50.946;6.954;2023-01-16T01:57:45;7.10;99.90
5130;DHT22;2583;50.946;6.954;2023-01-16T02:00:19;7.00;99.90
5130;DHT22;2583;50.946;6.954;2023-01-16T02:03:11;7.00;99.90
5130;DHT22;2583;50.946;6.954;2023-01-16T02:05:43;7.00;99.90
5130;DHT22;2583;50.946;6.954;2023-01-16T02:08:16;7.00;99.90
5130;DHT22;2583;50.946;6.954;2023-01-16T02:10:51;7.00;99.90
5130;DHT22;2583;50.946;6.954;2023-01-16T02:13:18;6.90;99.90
5130;DHT22;2583;50.946;6.954;2023-01-16T02:15:46;6.80;99.90
5130;DHT22;2583;50.946;6.954;2023-01-16T02:18:31;6.80;99.90
5130;DHT22;2583;50.946;6.954;2023-01-16T02:24:20;6.70;99.90
5130;DHT22;2583;50.946;6.954;2023-01-16T02:27:05;6.70;99.90
5130;DHT22;2583;50.946;6.954;2023-01-16T02:35:21;6.60;99.90
5130;DHT22;2583;50.946;6.954;2023-01-16T02:41:38;6.60;99.90
5130;DHT22;2583;50.946;6.954;2023-01-16T02:44:30;6.60;99.90
5130;DHT22;2583;50.946;6.954;2023-01-16T02:47:26;6.60;99.90
5130;DHT22;2583;50.946;6.954;2023-01-16T02:52:46;6.60;99.90
5130;DHT22;2583;50.946;6.954;2023-01-16T02:55:46;6.70;99.90
5130;DHT22;2583;50.946;6.954;2023-01-16T02:58:14;6.60;99.90
5130;DHT22;2583;50.946;6.954;2023-01-16T03:00:56;6.70;99.90
5130;DHT22;2583;50.946;6.954;2023-01-16T03:03:39;6.80;99.90
5130;DHT22;2583;50.946;6.954;2023-01-16T03:06:43;6.80;99.90
5130;DHT22;2583;50.946;6.954;2023-01-16T03:15:04;6.90;99.90
5130;DHT22;2583;50.946;6.954;2023-01-16T03:17:58;6.80;99.90
5130;DHT22;2583;50.946;6.954;2023-01-16T03:20:39;6.80;99.90
5130;DHT22;2583;50.946;6.954;2023-01-16T03:26:30;6.60;99.90
5130;DHT22;2583;50.946;6.954;2023-01-16T03:31:33;6.30;99.90
5130;DHT22;2583;50.946;6.954;2023-01-16T03:34:26;6.20;99.90
5130;DHT22;2583;50.946;6.954;2023-01-16T03:37:06;6.20;99.90
5130;DHT22;2583;50.946;6.954;2023-01-16T03:39:44;6.10;99.90
5130;DHT22;2583;50.946;6.954;2023-01-16T03:42:22;6.10;99.90
5130;DHT22;2583;50.946;6.954;2023-01-16T03:44:55;6.10;99.90
5130;DHT22;2583;50.946;6.954;2023-01-16T03:47:29;6.00;99.90
5130;DHT22;2583;50.946;6.954;2023-01-16T03:50:03;5.90;99.90
5130;DHT22;2583;50.946;6.954;2023-01-16T03:52:37;5.90;99.90
5130;DHT22;2583;50.946;6.954;2023-01-16T03:57:39;6.00;99.90
5130;DHT22;2583;50.946;6.954;2023-01-16T04:00:08;6.00;99.90
5130;DHT22;2583;50.946;6.954;2023-01-16T04:02:58;6.00;99.90
5130;DHT22;2583;50.946;6.954;2023-01-16T04:05:29;5.90;99.90
5130;DHT22;2583;50.946;6.954;2023-01-16T04:08:00;5.90;99.90
5130;DHT22;2583;50.946;6.954;2023-01-16T04:10:31;5.90;99.90
5130;DHT22;2583;50.946;6.954;2023-01-16T04:13:11;5.90;99.90
5130;DHT22;2583;50.946;6.954;2023-01-16T04:15:42;5.90;99.90
5130;DHT22;2583;50.946;6.954;2023-01-16T04:18:11;5.90;99.90
5130;DHT22;2583;50.946;6.954;2023-01-16T04:20:40;5.90;99.90
5130;DHT22;2583;50.946;6.954;2023-01-16T04:23:08;5.90;99.90
5130;DHT22;2583;50.946;6.954;2023-01-16T04:25:35;5.90;99.90
5130;DHT22;2583;50.946;6.954;2023-01-16T04:28:02;5.90;99.90
5130;DHT22;2583;50.946;6.954;2023-01-16T04:30:29;5.90;99.90
5130;DHT22;2583;50.946;6.954;2023-01-16T04:32:56;6.00;99.90
5130;DHT22;2583;50.946;6.954;2023-01-16T04:35:22;6.00;99.90
5130;DHT22;2583;50.946;6.954;2023-01-16T04:37:49;6.00;99.90
5130;DHT22;2583;50.946;6.954;2023-01-16T04:40:16;6.00;99.90
5130;DHT22;2583;50.946;6.954;2023-01-16T04:42:43;6.00;99.90
5130;DHT22;2583;50.946;6.954;2023-01-16T04:45:10;6.00;99.90
5130;DHT22;2583;50.946;6.954;2023-01-16T04:47:36;6.00;99.90
5130;DHT22;2583;50.946;6.954;2023-01-16T04:50:04;5.90;99.90
5130;DHT22;2583;50.946;6.954;2023-01-16T04:52:31;6.00;99.90
5130;DHT22;2583;50.946;6.954;2023-01-16T04:54:57;6.00;99.90
5130;DHT22;2583;50.946;6.954;2023-01-16T04:57:24;6.00;99.90
5130;DHT22;2583;50.946;6.954;2023-01-16T04:59:51;6.10;99.90
5130;DHT22;2583;50.946;6.954;2023-01-16T05:02:18;6.10;99.90
5130;DHT22;2583;50.946;6.954;2023-01-16T05:04:45;6.20;99.90
5130;DHT22;2583;50.946;6.954;2023-01-16T05:07:12;6.30;99.90
5130;DHT22;2583;50.946;6.954;2023-01-16T05:09:38;6.30;99.90
5130;DHT22;2583;50.946;6.954;2023-01-16T05:12:05;6.20;99.90
5130;DHT22;2583;50.946;6.954;2023-01-16T05:14:32;6.20;99.90
5130;DHT22;2583;50.946;6.954;2023-01-16T05:16:59;6.30;99.90
5130;DHT22;2583;50.946;6.954;2023-01-16T05:19:26;6.30;99.90
5130;DHT22;2583;50.946;6.954;2023-01-16T05:21:53;6.20;99.90
5130;DHT22;2583;50.946;6.954;2023-01-16T05:24:19;6.20;99.90
5130;DHT22;2583;50.946;6.954;2023-01-16T05:26:48;6.20;99.90
5130;DHT22;2583;50.946;6.954;2023-01-16T05:29:15;6.20;99.90
5130;DHT22;2583;50.946;6.954;2023-01-16T05:31:42;6.20;99.90
5130;DHT22;2583;50.946;6.954;2023-01-16T05:34:09;6.20;99.90
5130;DHT22;2583;50.946;6.954;2023-01-16T05:36:36;6.20;99.90
5130;DHT22;2583;50.946;6.954;2023-01-16T05:39:03;6.20;99.90
5130;DHT22;2583;50.946;6.954;2023-01-16T05:41:30;6.20;99.90
5130;DHT22;2583;50.946;6.954;2023-01-16T05:43:57;6.30;99.90
5130;DHT22;2583;50.946;6.954;2023-01-16T05:46:24;6.30;99.90
5130;DHT22;2583;50.946;6.954;2023-01-16T05:48:51;6.40;99.90
5130;DHT22;2583;50.946;6.954;2023-01-16T05:51:17;6.40;99.90
5130;DHT22;2583;50.946;6.954;2023-01-16T05:53:49;6.50;99.90
5130;DHT22;2583;50.946;6.954;2023-01-16T05:56:19;6.50;99.90
5130;DHT22;2583;50.946;6.954;2023-01-16T05:58:47;6.50;99.90
5130;DHT22;2583;50.946;6.954;2023-01-16T06:01:13;6.50;99.90
5130;DHT22;2583;50.946;6.954;2023-01-16T06:03:40;6.50;99.90
5130;DHT22;2583;50.946;6.954;2023-01-16T06:06:07;6.50;99.90
5130;DHT22;2583;50.946;6.954;2023-01-16T06:08:34;6.50;99.90
5130;DHT22;2583;50.946;6.954;2023-01-16T06:11:01;6.50;99.90
5130;DHT22;2583;50.946;6.954;2023-01-16T06:13:27;6.50;99.90
5130;DHT22;2583;50.946;6.954;2023-01-16T06:15:54;6.50;99.90
5130;DHT22;2583;50.946;6.954;2023-01-16T06:18:21;6.50;99.90
5130;DHT22;2583;50.946;6.954;2023-01-16T06:20:48;6.60;99.90
5130;DHT22;2583;50.946;6.954;2023-01-16T06:23:14;6.60;99.90
5130;DHT22;2583;50.946;6.954;2023-01-16T06:25:41;6.60;99.90
5130;DHT22;2583;50.946;6.954;2023-01-16T06:28:10;6.60;99.90
5130;DHT22;2583;50.946;6.954;2023-01-16T06:30:36;6.60;99.90
5130;DHT22;2583;50.946;6.954;2023-01-16T06:33:03;6.60;99.90
5130;DHT22;2583;50.946;6.954;2023-01-16T06:35:30;6.60;99.90
5130;DHT22;2583;50.946;6.954;2023-01-16T06:37:57;6.60;99.90
5130;DHT22;2583;50.946;6.954;2023-01-16T06:40:23;6.60;99.90
5130;DHT22;2583;50.946;6.954;2023-01-16T06:42:50;6.50;99.90
5130;DHT22;2583;50.946;6.954;2023-01-16T06:45:17;6.50;99.90
5130;DHT22;2583;50.946;6.954;2023-01-16T06:47:52;6.50;99.90
5130;DHT22;2583;50.946;6.954;2023-01-16T06:50:19;6.50;99.90
5130;DHT22;2583;50.946;6.954;2023-01-16T06:52:47;6.50;99.90
5130;DHT22;2583;50.946;6.954;2023-01-16T06:55:14;6.50;99.90
5130;DHT22;2583;50.946;6.954;2023-01-16T06:57:44;6.60;99.90
5130;DHT22;2583;50.946;6.954;2023-01-16T07:00:12;6.60;99.90
5130;DHT22;2583;50.946;6.954;2023-01-16T07:02:39;6.60;99.90
5130;DHT22;2583;50.946;6.954;2023-01-16T07:05:08;6.60;99.90
5130;DHT22;2583;50.946;6.954;2023-01-16T07:07:36;6.60;99.90
5130;DHT22;2583;50.946;6.954;2023-01-16T07:10:03;6.60;99.90
5130;DHT22;2583;50.946;6.954;2023-01-16T07:12:30;6.60;99.90
5130;DHT22;2583;50.946;6.954;2023-01-16T07:14:57;6.60;99.90
5130;DHT22;2583;50.946;6.954;2023-01-16T07:17:42;6.50;99.90
5130;DHT22;2583;50.946;6.954;2023-01-16T07:20:27;6.50;99.90
5130;DHT22;2583;50.946;6.954;2023-01-16T07:23:30;6.50;99.90
5130;DHT22;2583;50.946;6.954;2023-01-16T07:26:00;6.50;99.90
5130;DHT22;2583;50.946;6.954;2023-01-16T07:28:28;6.40;99.90
5130;DHT22;2583;50.946;6.954;2023-01-16T07:30:56;6.40;99.90
5130;DHT22;2583;50.946;6.954;2023-01-16T07:33:24;6.50;99.90
5130;DHT22;2583;50.946;6.954;2023-01-16T07:35:50;6.50;99.90
5130;DHT22;2583;50.946;6.954;2023-01-16T07:38:17;6.60;99.90
5130;DHT22;2583;50.946;6.954;2023-01-16T07:40:44;6.60;99.90
5130;DHT22;2583;50.946;6.954;2023-01-16T07:43:11;6.60;99.90
5130;DHT22;2583;50.946;6.954;2023-01-16T07:45:38;6.70;99.90
5130;DHT22;2583;50.946;6.954;2023-01-16T07:48:04;6.70;99.90
5130;DHT22;2583;50.946;6.954;2023-01-16T07:50:31;6.70;99.90
5130;DHT22;2583;50.946;6.954;2023-01-16T07:52:58;6.80;99.90
5130;DHT22;2583;50.946;6.954;2023-01-16T07:55:25;6.70;99.90
5130;DHT22;2583;50.946;6.954;2023-01-16T07:57:52;6.80;99.90
5130;DHT22;2583;50.946;6.954;2023-01-16T08:00:19;6.80;99.90
5130;DHT22;2583;50.946;6.954;2023-01-16T08:02:46;6.70;99.90
5130;DHT22;2583;50.946;6.954;2023-01-16T08:05:12;6.70;99.90
5130;DHT22;2583;50.946;6.954;2023-01-16T08:07:39;6.70;99.90
5130;DHT22;2583;50.946;6.954;2023-01-16T08:10:06;6.60;99.90
5130;DHT22;2583;50.946;6.954;2023-01-16T08:12:33;6.60;99.90
5130;DHT22;2583;50.946;6.954;2023-01-16T08:15:00;6.60;99.90
5130;DHT22;2583;50.946;6.954;2023-01-16T08:17:27;6.60;99.90
5130;DHT22;2583;50.946;6.954;2023-01-16T08:19:54;6.60;99.90
5130;DHT22;2583;50.946;6.954;2023-01-16T08:22:21;6.60;99.90
5130;DHT22;2583;50.946;6.954;2023-01-16T08:24:47;6.70;99.90
5130;DHT22;2583;50.946;6.954;2023-01-16T08:27:14;6.60;99.90
5130;DHT22;2583;50.946;6.954;2023-01-16T08:29:42;6.60;99.90
5130;DHT22;2583;50.946;6.954;2023-01-16T08:32:09;6.50;99.90
5130;DHT22;2583;50.946;6.954;2023-01-16T08:34:36;6.50;99.90
5130;DHT22;2583;50.946;6.954;2023-01-16T08:37:03;6.50;99.90
5130;DHT22;2583;50.946;6.954;2023-01-16T08:39:31;6.50;99.90
5130;DHT22;2583;50.946;6.954;2023-01-16T08:41:57;6.60;99.90
5130;DHT22;2583;50.946;6.954;2023-01-16T08:44:42;6.50;99.90
5130;DHT22;2583;50.946;6.954;2023-01-16T08:47:28;6.50;99.90
5130;DHT22;2583;50.946;6.954;2023-01-16T08:50:16;6.50;99.90
5130;DHT22;2583;50.946;6.954;2023-01-16T08:53:02;6.40;99.90
5130;DHT22;2583;50.946;6.954;2023-01-16T08:55:29;6.50;99.90
5130;DHT22;2583;50.946;6.954;2023-01-16T08:57:56;6.40;99.90
5130;DHT22;2583;50.946;6.954;2023-01-16T09:00:27;6.40;99.90
5130;DHT22;2583;50.946;6.954;2023-01-16T09:02:55;6.40;99.90
5130;DHT22;2583;50.946;6.954;2023-01-16T09:05:25;6.40;99.90
5130;DHT22;2583;50.946;6.954;2023-01-16T09:07:53;6.50;99.90
5130;DHT22;2583;50.946;6.954;2023-01-16T09:10:19;6.40;99.90
5130;DHT22;2583;50.946;6.954;2023-01-16T09:12:46;6.50;99.90
5130;DHT22;2583;50.946;6.954;2023-01-16T09:15:31;6.40;99.90
5130;DHT22;2583;50.946;6.954;2023-01-16T09:17:58;6.40;99.90
5130;DHT22;2583;50.946;6.954;2023-01-16T09:20:25;6.40;99.90
5130;DHT22;2583;50.946;6.954;2023-01-16T09:23:00;6.40;99.90
5130;DHT22;2583;50.946;6.954;2023-01-16T09:25:28;6.40;99.90
5130;DHT22;2583;50.946;6.954;2023-01-16T09:27:55;6.40;99.90
5130;DHT22;2583;50.946;6.954;2023-01-16T09:30:22;6.40;99.90
5130;DHT22;2583;50.946;6.954;2023-01-16T09:32:49;6.50;99.90
5130;DHT22;2583;50.946;6.954;2023-01-16T09:35:16;6.50;99.90
5130;DHT22;2583;50.946;6.954;2023-01-16T09:37:45;6.60;99.90
5130;DHT22;2583;50.946;6.954;2023-01-16T09:40:16;6.50;99.90
5130;DHT22;2583;50.946;6.954;2023-01-16T09:45:36;6.50;99.90
5130;DHT22;2583;50.946;6.954;2023-01-16T09:48:24;6.50;99.90
5130;DHT22;2583;50.946;6.954;2023-01-16T09:50:54;6.40;99.90
5130;DHT22;2583;50.946;6.954;2023-01-16T09:56:22;6.40;99.90
5130;DHT22;2583;50.946;6.954;2023-01-16T10:02:32;6.40;99.90
5130;DHT22;2583;50.946;6.954;2023-01-16T10:05:01;6.50;99.90
5130;DHT22;2583;50.946;6.954;2023-01-16T10:07:43;6.40;99.90
5130;DHT22;2583;50.946;6.954;2023-01-16T10:19:20;6.60;99.90
5130;DHT22;2583;50.946;6.954;2023-01-16T10:25:17;6.60;99.90
5130;DHT22;2583;50.946;6.954;2023-01-16T10:30:19;6.60;99.90
5130;DHT22;2583;50.946;6.954;2023-01-16T10:32:56;6.50;99.90
5130;DHT22;2583;50.946;6.954;2023-01-16T10:35:50;6.60;99.90
5130;DHT22;2583;50.946;6.954;2023-01-16T10:38:26;6.60;99.90
5130;DHT22;2583;50.946;6.954;2023-01-16T10:41:14;6.60;99.90
5130;DHT22;2583;50.946;6.954;2023-01-16T10:44:11;6.50;99.90
5130;DHT22;2583;50.946;6.954;2023-01-16T10:47:03;6.50;99.90
5130;DHT22;2583;50.946;6.954;2023-01-16T10:49:53;6.50;99.90
5130;DHT22;2583;50.946;6.954;2023-01-16T10:52:20;6.50;99.90
5130;DHT22;2583;50.946;6.954;2023-01-16T10:54:48;6.50;99.90
5130;DHT22;2583;50.946;6.954;2023-01-16T10:57:16;6.60;99.90
5130;DHT22;2583;50.946;6.954;2023-01-16T10:59:50;6.70;99.90
5130;DHT22;2583;50.946;6.954;2023-01-16T11:02:33;6.80;99.90
5130;DHT22;2583;50.946;6.954;2023-01-16T11:05:00;6.70;99.90
5130;DHT22;2583;50.946;6.954;2023-01-16T11:07:29;6.80;99.90
5130;DHT22;2583;50.946;6.954;2023-01-16T11:09:56;6.70;99.90
5130;DHT22;2583;50.946;6.954;2023-01-16T11:12:29;6.70;99.90
5130;DHT22;2583;50.946;6.954;2023-01-16T11:15:21;6.70;99.90
5130;DHT22;2583;50.946;6.954;2023-01-16T11:18:23;6.60;99.90
5130;DHT22;2583;50.946;6.954;2023-01-16T11:20:57;6.80;99.90
5130;DHT22;2583;50.946;6.954;2023-01-16T11:23:27;7.00;99.90
5130;DHT22;2583;50.946;6.954;2023-01-16T11:26:00;7.10;99.70
5130;DHT22;2583;50.946;6.954;2023-01-16T11:28:31;7.30;98.80
5130;DHT22;2583;50.946;6.954;2023-01-16T11:31:01;7.40;97.70
5130;DHT22;2583;50.946;6.954;2023-01-16T11:33:40;7.40;97.70
5130;DHT22;2583;50.946;6.954;2023-01-16T11:36:10;7.50;97.60
5130;DHT22;2583;50.946;6.954;2023-01-16T11:38:42;7.50;97.60
5130;DHT22;2583;50.946;6.954;2023-01-16T11:41:10;7.50;97.80
5130;DHT22;2583;50.946;6.954;2023-01-16T11:43:37;7.40;97.10
5130;DHT22;2583;50.946;6.954;2023-01-16T11:49:02;7.50;97.10
5130;DHT22;2583;50.946;6.954;2023-01-16T11:51:32;7.50;96.10
5130;DHT22;2583;50.946;6.954;2023-01-16T11:54:05;7.60;96.80
5130;DHT22;2583;50.946;6.954;2023-01-16T11:56:49;7.60;96.00
5130;DHT22;2583;50.946;6.954;2023-01-16T12:14:12;7.20;99.90
5130;DHT22;2583;50.946;6.954;2023-01-16T12:17:26;7.20;99.90
5130;DHT22;2583;50.946;6.954;2023-01-16T12:28:27;7.10;99.90
5130;DHT22;2583;50.946;6.954;2023-01-16T12:31:28;7.10;99.90
5130;DHT22;2583;50.946;6.954;2023-01-16T12:34:24;7.00;99.90
5130;DHT22;2583;50.946;6.954;2023-01-16T12:39:47;7.00;99.90
5130;DHT22;2583;50.946;6.954;2023-01-16T12:51:11;7.00;99.90
5130;DHT22;2583;50.946;6.954;2023-01-16T12:54:23;7.00;99.90
5130;DHT22;2583;50.946;6.954;2023-01-16T12:59:39;7.00;99.90
5130;DHT22;2583;50.946;6.954;2023-01-16T13:04:59;7.10;99.90
5130;DHT22;2583;50.946;6.954;2023-01-16T13:07:36;7.00;99.90
5130;DHT22;2583;50.946;6.954;2023-01-16T13:10:19;7.00;99.90
5130;DHT22;2583;50.946;6.954;2023-01-16T13:13:14;7.00;99.90
5130;DHT22;2583;50.946;6.954;2023-01-16T13:16:02;7.00;99.90
5130;DHT22;2583;50.946;6.954;2023-01-16T13:18:42;7.10;99.90
5130;DHT22;2583;50.946;6.954;2023-01-16T13:21:18;7.20;99.90
5130;DHT22;2583;50.946;6.954;2023-01-16T13:23:58;7.20;99.90
5130;DHT22;2583;50.946;6.954;2023-01-16T13:26:28;7.20;99.90
5130;DHT22;2583;50.946;6.954;2023-01-16T13:29:20;7.20;99.90
5130;DHT22;2583;50.946;6.954;2023-01-16T13:31:54;7.20;99.90
5130;DHT22;2583;50.946;6.954;2023-01-16T13:34:30;7.10;99.90
5130;DHT22;2583;50.946;6.954;2023-01-16T13:37:32;7.00;99.90
5130;DHT22;2583;50.946;6.954;2023-01-16T13:43:18;6.90;99.90
5130;DHT22;2583;50.946;6.954;2023-01-16T13:46:04;6.90;99.90
5130;DHT22;2583;50.946;6.954;2023-01-16T13:48:33;6.90;99.90
5130;DHT22;2583;50.946;6.954;2023-01-16T13:51:03;6.90;99.90
5130;DHT22;2583;50.946;6.954;2023-01-16T13:53:35;6.80;99.90
5130;DHT22;2583;50.946;6.954;2023-01-16T13:56:23;6.80;99.90
5130;DHT22;2583;50.946;6.954;2023-01-16T13:58:58;6.80;99.90
5130;DHT22;2583;50.946;6.954;2023-01-16T14:06:51;6.80;99.90
5130;DHT22;2583;50.946;6.954;2023-01-16T14:10:06;6.80;99.90
5130;DHT22;2583;50.946;6.954;2023-01-16T14:12:58;6.90;99.90
5130;DHT22;2583;50.946;6.954;2023-01-16T14:15:22;6.80;99.90
5130;DHT22;2583;50.946;6.954;2023-01-16T14:18:19;6.80;99.90
5130;DHT22;2583;50.946;6.954;2023-01-16T14:23:28;6.80;99.90
5130;DHT22;2583;50.946;6.954;2023-01-16T14:26:19;6.80;99.90
5130;DHT22;2583;50.946;6.954;2023-01-16T14:28:48;6.80;99.90
5130;DHT22;2583;50.946;6.954;2023-01-16T14:31:27;6.80;99.90
5130;DHT22;2583;50.946;6.954;2023-01-16T14:33:57;6.80;99.90
5130;DHT22;2583;50.946;6.954;2023-01-16T14:36:27;6.80;99.90
5130;DHT22;2583;50.946;6.954;2023-01-16T14:38:55;6.80;99.90
5130;DHT22;2583;50.946;6.954;2023-01-16T14:41:28;6.80;99.90
5130;DHT22;2583;50.946;6.954;2023-01-16T14:44:18;6.80;99.90
5130;DHT22;2583;50.946;6.954;2023-01-16T14:47:11;6.90;99.90
5130;DHT22;2583;50.946;6.954;2023-01-16T14:58:45;6.80;99.90
5130;DHT22;2583;50.946;6.954;2023-01-16T15:01:38;6.80;99.90
5130;DHT22;2583;50.946;6.954;2023-01-16T15:04:31;6.90;99.90
5130;DHT22;2583;50.946;6.954;2023-01-16T15:07:04;6.90;99.90
5130;DHT22;2583;50.946;6.954;2023-01-16T15:09:31;6.90;99.90
5130;DHT22;2583;50.946;6.954;2023-01-16T15:12:06;6.90;99.90
5130;DHT22;2583;50.946;6.954;2023-01-16T15:14:36;7.00;99.90
5130;DHT22;2583;50.946;6.954;2023-01-16T15:22:52;7.00;99.90
5130;DHT22;2583;50.946;6.954;2023-01-16T15:25:36;7.10;99.90
5130;DHT22;2583;50.946;6.954;2023-01-16T15:28:50;7.10;99.90
5130;DHT22;2583;50.946;6.954;2023-01-16T15:31:33;7.10;99.90
5130;DHT22;2583;50.946;6.954;2023-01-16T15:34:16;7.00;99.90
5130;DHT22;2583;50.946;6.954;2023-01-16T15:36:46;7.00;99.90
5130;DHT22;2583;50.946;6.954;2023-01-16T15:42:22;7.00;99.90
5130;DHT22;2583;50.946;6.954;2023-01-16T15:51:01;7.00;99.90
5130;DHT22;2583;50.946;6.954;2023-01-16T15:53:35;7.00;99.90
5130;DHT22;2583;50.946;6.954;2023-01-16T15:58:58;6.90;99.90
5130;DHT22;2583;50.946;6.954;2023-01-16T16:01:33;6.90;99.90
5130;DHT22;2583;50.946;6.954;2023-01-16T16:04:02;6.90;99.90
5130;DHT22;2583;50.946;6.954;2023-01-16T16:06:30;6.90;99.90
5130;DHT22;2583;50.946;6.954;2023-01-16T16:09:01;6.90;99.90
5130;DHT22;2583;50.946;6.954;2023-01-16T16:11:31;6.90;99.90
5130;DHT22;2583;50.946;6.954;2023-01-16T16:14:30;6.90;99.90
5130;DHT22;2583;50.946;6.954;2023-01-16T16:17:24;6.80;99.90
5130;DHT22;2583;50.946;6.954;2023-01-16T16:20:35;6.80;99.90
5130;DHT22;2583;50.946;6.954;2023-01-16T16:28:23;6.80;99.90
5130;DHT22;2583;50.946;6.954;2023-01-16T16:33:30;6.80;99.90
5130;DHT22;2583;50.946;6.954;2023-01-16T16:36:00;6.80;99.90
5130;DHT22;2583;50.946;6.954;2023-01-16T16:38:31;6.70;99.90
5130;DHT22;2583;50.946;6.954;2023-01-16T16:44:25;6.60;99.90
5130;DHT22;2583;50.946;6.954;2023-01-16T16:46:58;6.50;99.90
5130;DHT22;2583;50.946;6.954;2023-01-16T16:49:26;6.60;99.90
5130;DHT22;2583;50.946;6.954;2023-01-16T16:51:54;6.60;99.90
5130;DHT22;2583;50.946;6.954;2023-01-16T16:54:26;6.60;99.90
5130;DHT22;2583;50.946;6.954;2023-01-16T16:56:56;6.60;99.90
5130;DHT22;2583;50.946;6.954;2023-01-16T16:59:28;6.70;99.90
5130;DHT22;2583;50.946;6.954;2023-01-16T17:01:59;6.80;99.90
5130;DHT22;2583;50.946;6.954;2023-01-16T17:04:34;6.80;99.90
5130;DHT22;2583;50.946;6.954;2023-01-16T17:07:01;6.80;99.90
5130;DHT22;2583;50.946;6.954;2023-01-16T17:09:28;6.80;99.90
5130;DHT22;2583;50.946;6.954;2023-01-16T17:12:15;6.80;99.90
5130;DHT22;2583;50.946;6.954;2023-01-16T17:14:42;6.90;99.90
5130;DHT22;2583;50.946;6.954;2023-01-16T17:17:14;6.90;99.90
5130;DHT22;2583;50.946;6.954;2023-01-16T17:19:42;6.90;99.90
5130;DHT22;2583;50.946;6.954;2023-01-16T17:22:10;6.90;99.90
5130;DHT22;2583;50.946;6.954;2023-01-16T17:24:38;6.90;99.90
5130;DHT22;2583;50.946;6.954;2023-01-16T17:27:05;7.00;99.90
5130;DHT22;2583;50.946;6.954;2023-01-16T17:29:36;7.00;99.90
5130;DHT22;2583;50.946;6.954;2023-01-16T17:32:28;7.00;99.90
5130;DHT22;2583;50.946;6.954;2023-01-16T17:34:58;7.00;99.90
5130;DHT22;2583;50.946;6.954;2023-01-16T17:37:25;6.90;99.90
5130;DHT22;2583;50.946;6.954;2023-01-16T17:39:52;6.90;99.90
5130;DHT22;2583;50.946;6.954;2023-01-16T17:42:19;6.90;99.90
5130;DHT22;2583;50.946;6.954;2023-01-16T17:44:46;7.00;99.90
5130;DHT22;2583;50.946;6.954;2023-01-16T17:47:31;7.00;99.90
5130;DHT22;2583;50.946;6.954;2023-01-16T17:49:58;7.00;99.90
5130;DHT22;2583;50.946;6.954;2023-01-16T17:52:44;7.00;99.90
5130;DHT22;2583;50.946;6.954;2023-01-16T17:55:10;7.00;99.90
5130;DHT22;2583;50.946;6.954;2023-01-16T17:57:55;7.00;99.90
5130;DHT22;2583;50.946;6.954;2023-01-16T18:00:23;7.00;99.90
5130;DHT22;2583;50.946;6.954;2023-01-16T18:02:50;7.00;99.90
5130;DHT22;2583;50.946;6.954;2023-01-16T18:05:17;7.00;99.90
5130;DHT22;2583;50.946;6.954;2023-01-16T18:07:45;7.10;99.90
5130;DHT22;2583;50.946;6.954;2023-01-16T18:10:11;7.10;99.90
5130;DHT22;2583;50.946;6.954;2023-01-16T18:12:38;7.20;99.90
5130;DHT22;2583;50.946;6.954;2023-01-16T18:15:24;7.10;99.90
5130;DHT22;2583;50.946;6.954;2023-01-16T18:18:09;7.20;99.90
5130;DHT22;2583;50.946;6.954;2023-01-16T18:20:39;7.20;99.90
5130;DHT22;2583;50.946;6.954;2023-01-16T18:23:06;7.10;99.90
5130;DHT22;2583;50.946;6.954;2023-01-16T18:25:33;7.10;99.90
5130;DHT22;2583;50.946;6.954;2023-01-16T18:28:00;7.20;99.90
5130;DHT22;2583;50.946;6.954;2023-01-16T18:30:27;7.20;99.90
5130;DHT22;2583;50.946;6.954;2023-01-16T18:32:54;7.20;99.90
5130;DHT22;2583;50.946;6.954;2023-01-16T18:35:21;7.20;99.90
5130;DHT22;2583;50.946;6.954;2023-01-16T18:37:50;7.10;99.90
5130;DHT22;2583;50.946;6.954;2023-01-16T18:40:35;7.10;99.90
5130;DHT22;2583;50.946;6.954;2023-01-16T18:43:20;7.10;99.90
5130;DHT22;2583;50.946;6.954;2023-01-16T18:46:15;7.00;99.90
5130;DHT22;2583;50.946;6.954;2023-01-16T18:49:00;7.00;99.90
5130;DHT22;2583;50.946;6.954;2023-01-16T18:51:47;6.90;99.90
5130;DHT22;2583;50.946;6.954;2023-01-16T18:54:32;6.80;99.90
5130;DHT22;2583;50.946;6.954;2023-01-16T18:57:22;6.70;99.90
5130;DHT22;2583;50.946;6.954;2023-01-16T19:00:14;6.70;99.90
5130;DHT22;2583;50.946;6.954;2023-01-16T19:03:00;6.70;99.90
5130;DHT22;2583;50.946;6.954;2023-01-16T19:05:27;6.60;99.90
5130;DHT22;2583;50.946;6.954;2023-01-16T19:07:56;6.60;99.90
5130;DHT22;2583;50.946;6.954;2023-01-16T19:10:27;6.50;99.90
5130;DHT22;2583;50.946;6.954;2023-01-16T19:12:58;6.50;99.90
5130;DHT22;2583;50.946;6.954;2023-01-16T19:15:25;6.40;99.90
5130;DHT22;2583;50.946;6.954;2023-01-16T19:17:52;6.50;99.90
5130;DHT22;2583;50.946;6.954;2023-01-16T19:20:22;6.40;99.90
5130;DHT22;2583;50.946;6.954;2023-01-16T19:22:50;6.40;99.90
5130;DHT22;2583;50.946;6.954;2023-01-16T19:25:21;6.30;99.90